• Join FlightAware (Why Join?)
  • Login
  • US Flag 
08:57PM EST


 

Airport Tracker/Info


-or-


 

Live Flight TrackerFlight Track Log ✈ N24WC ✈ 04-May-2012 ✈ KDTS - KCDH

Flight Track Log - Related Links

Times and Time Zones

All times are in EDT time to prevent confusion due to time zone crossing. See the N24WC flight status page for this flight to view local times or setup timezone preferences in your user account.

Time Position Orientation Groundspeed Altitude Reporting Facility
EDT Latitude Longitude Course Direction KTS MPH feet Rate Location/Type
11:07PM 30.3839 -86.3744 355° North 212 244 4,600  Level Jacksonville Center
11:11PM 30.6108 -86.3972 352° North 217 250 10,800 1,500 Climbing Jacksonville Center
11:12PM 30.6689 -86.4064 350° North 217 250 12,100 1,320 Climbing Jacksonville Center
11:13PM 30.7231 -86.4181 354° North 211 243 13,500 1,200 Climbing Jacksonville Center
11:14PM 30.7792 -86.4250 351° North 204 235 14,600 1,080 Climbing Jacksonville Center
11:15PM 30.8331 -86.4344 313° West 197 227 15,700 960 Climbing Jacksonville Center
11:16PM 30.8694 -86.4792 301° West 188 216 16,600 840 Climbing Jacksonville Center
11:17PM 30.8992 -86.5361 296° West 188 216 17,400 600 Climbing Jacksonville Center
11:18PM 30.9244 -86.5975 300° West 200 230 17,900 240 Climbing Jacksonville Center
11:19PM 30.9561 -86.6619 303° West 213 245 17,900  Level Jacksonville Center
11:20PM 30.9956 -86.7336 296° West 243 280 17,900  Level Jacksonville Center
11:21PM 31.0247 -86.8028 298° West 243 280 17,900  Level Jacksonville Center
11:22PM 31.0600 -86.8817 300° West 256 295 17,900  Level Jacksonville Center
11:23PM 31.0953 -86.9536 300° West 256 295 17,900  Level Jacksonville Center
11:24PM 31.1267 -87.0181 299° West 256 295 17,900  Level Jacksonville Center
11:25PM 31.1617 -87.0925 299° West 256 295 17,900  Level Jacksonville Center
11:28PM 31.2433 -87.2664 299° West 253 291 18,000  Climbing Atlanta Center
11:29PM 31.2769 -87.3381 299° West 248 285 18,000  Level Atlanta Center
11:30PM 31.3106 -87.4097 300° West 248 285 18,000  Level Atlanta Center
11:31PM 31.3461 -87.4817 296° West 248 285 18,000  Level Atlanta Center
11:32PM 31.3772 -87.5558 298° West 248 285 18,000  Level Atlanta Center
11:33PM 31.4106 -87.6300 300° West 253 291 18,000  Level Atlanta Center
11:34PM 31.4461 -87.7019 298° West 253 291 18,000  Level Atlanta Center
11:35PM 31.4794 -87.7764 299° West 253 291 18,000  Level Atlanta Center
11:36PM 31.5147 -87.8508 298° West 253 291 18,000  Level Atlanta Center
11:37PM 31.5478 -87.9253 297° West 253 291 18,000  Level Atlanta Center
11:38PM 31.5808 -88.0000 299° West 253 291 18,000  Level Atlanta Center
11:39PM 31.6161 -88.0747 298° West 253 291 18,000  Level Atlanta Center
11:40PM 31.6492 -88.1492 298° West 253 291 18,000  Level Atlanta Center
11:41PM 31.6803 -88.2167 298° West 259 298 18,000  Level Atlanta Center
11:41PM 31.7044 -88.2697 296° West 265 305 18,000  Level Memphis Center
11:42PM 31.7328 -88.3375 298° West 254 292 18,000  Level Memphis Center
11:43PM 31.7653 -88.4100 298° West 254 292 18,000  Level Memphis Center
11:44PM 31.7997 -88.4850 297° West 254 292 18,000  Level Memphis Center
11:45PM 31.8322 -88.5603 299° West 254 292 18,000  Level Memphis Center
11:46PM 31.8667 -88.6328 297° West 254 292 18,000  Level Memphis Center
11:47PM 31.8989 -88.7081 300° West 254 292 18,000  Level Memphis Center
11:48PM 31.9397 -88.7906 299° West 259 298 18,000  Level Memphis Center
11:49PM 31.9739 -88.8636 297° West 264 304 18,000  Level Memphis Center
11:50PM 32.0061 -88.9389 299° West 259 298 18,000  Level Memphis Center
11:51PM 32.0403 -89.0119 298° West 259 298 18,000  Level Memphis Center
11:52PM 32.0725 -89.0850 299° West 259 298 18,000  Level Memphis Center
11:53PM 32.1067 -89.1581 297° West 259 298 18,000  Level Memphis Center
11:54PM 32.1386 -89.2336 297° West 259 298 18,000  Level Memphis Center
11:55PM 32.1706 -89.3069 297° West 259 298 18,000  Level Memphis Center
11:56PM 32.2025 -89.3803 297° West 259 298 18,000  Level Memphis Center
11:57PM 32.2364 -89.4583 299° West 259 298 18,000  Level Memphis Center
11:58PM 32.2703 -89.5294 297° West 259 298 18,000  Level Memphis Center
11:59PM 32.3022 -89.6053 298° West 259 298 18,000  Level Memphis Center
12:00AM 32.3339 -89.6764 296° West 259 298 18,000  Level Memphis Center
12:01AM 32.3656 -89.7522 297° West 259 298 18,000  Level Memphis Center
12:02AM 32.3972 -89.8258 298° West 259 298 18,000  Level Memphis Center
12:03AM 32.4311 -89.9019 298° West 259 298 18,000  Level Memphis Center
12:04AM 32.4647 -89.9756 296° West 259 298 18,000  Level Memphis Center
12:05AM 32.4961 -90.0519 297° West 259 298 18,000  Level Memphis Center
12:06AM 32.5278 -90.1256 298° West 259 298 18,000  Level Memphis Center
12:07AM 32.5611 -90.1994 297° West 259 298 18,000  Level Memphis Center
12:08AM 32.5925 -90.2733 295° West 259 298 18,000  Level Memphis Center
12:09AM 32.6219 -90.3500 298° West 259 298 18,000  Level Memphis Center
12:10AM 32.6553 -90.4239 297° West 254 292 18,000  Level Memphis Center
12:11AM 32.6864 -90.4956 298° West 254 292 18,000  Level Memphis Center
12:12AM 32.7197 -90.5697 295° West 254 292 18,000  Level Memphis Center
12:13AM 32.7489 -90.6439 298° West 254 292 18,000  Level Memphis Center
12:14AM 32.7819 -90.7181 297° West 254 292 18,000  Level Memphis Center
12:15AM 32.8111 -90.7850 297° West 254 292 18,000  Level Memphis Center
12:16AM 32.8422 -90.8592 297° West 254 292 18,000  Level Memphis Center
12:17AM 32.8731 -90.9311 296° West 254 292 18,000  Level Memphis Center
12:18AM 32.9042 -91.0081 296° West 254 292 18,000  Level Memphis Center
12:19AM 32.9350 -91.0825 297° West 254 292 18,000  Level Memphis Center
12:20AM 32.9658 -91.1544 296° West 254 292 18,000  Level Memphis Center
12:21AM 32.9967 -91.2292 295° West 254 292 18,000  Level Memphis Center
12:22AM 33.0253 -91.3014 299° West 254 292 18,000  Level Memphis Center
12:23AM 33.0583 -91.3736 293° West 254 292 18,000 -180 Level Memphis Center
12:24AM 33.0847 -91.4483 299° West 254 292 17,700 -780 Descending Memphis Center
12:27AM 33.1817 -91.6606 299° West 286 329 15,300 -960 Descending Fort Worth Center
12:28AM 33.2189 -91.7425 291° West 286 329 14,400 -900 Descending Fort Worth Center
12:29AM 33.2456 -91.8253 297° West 274 315 13,500 -1,020 Descending Fort Worth Center
12:30AM 33.2781 -91.9003 298° West 269 310 12,400 -1,080 Descending Fort Worth Center
12:31AM 33.3128 -91.9800 295° West 269 310 11,400 -1,020 Descending Fort Worth Center
12:32AM 33.3456 -92.0625 295° West 269 310 10,400 -1,140 Descending Fort Worth Center
12:33AM 33.3783 -92.1450 297° West 269 310 9,200 -1,200 Descending Fort Worth Center
12:34AM 33.4131 -92.2275 294° West 276 318 8,000 -1,140 Descending Fort Worth Center
12:35AM 33.4414 -92.3056 297° West 270 311 7,000 -1,320 Descending Fort Worth Center
12:36AM 33.4736 -92.3808 297° West 265 305 5,400 -1,620 Descending Fort Worth Center